TAF KHDN
AMD KHDN 090618Z 0906/1006 25018G23KT P6SM VCSH SCT029 OVC040 TEMPO 0906/0910 VRB12KT -SHRA OVC035 FM091000 27011KT 4SM -SHSN BR SCT024 OVC026 FM091900 24011G20KT 2SM -SHSNRA BR SCT012 OVC018 FM100000 25012KT 1 1/2SM -SN BR OVC007 FM100500 27011KT 1 1/2SM -SN BR SCT005 OVC020=
METAR KHDN
WC KHDN
WS KHDN
WV KHDN